createdAt,value
2023-02-13T00:00:39.288Z,25.50
2023-02-13T00:04:42.183Z,28.20
2023-02-13T00:08:43.234Z,26.70
2023-02-13T00:12:46.269Z,24.33
2023-02-13T00:16:47.416Z,23.63
2023-02-13T00:20:57.406Z,26.13
2023-02-13T00:24:58.762Z,24.70
2023-02-13T00:29:00.007Z,24.93
2023-02-13T00:33:01.187Z,25.10
2023-02-13T00:37:02.344Z,24.13
2023-02-13T00:41:04.232Z,25.20
2023-02-13T00:45:05.774Z,24.73
2023-02-13T00:49:07.161Z,22.77
2023-02-13T00:53:08.185Z,20.10
2023-02-13T00:57:09.365Z,20.33
2023-02-13T01:01:10.519Z,21.30
2023-02-13T01:05:11.910Z,21.37
2023-02-13T01:09:12.879Z,19.10
2023-02-13T01:13:16.040Z,18.87
2023-02-13T01:17:17.058Z,17.27
2023-02-13T01:21:20.756Z,19.17
2023-02-13T01:25:22.615Z,19.30
2023-02-13T01:29:23.750Z,19.77
2023-02-13T01:33:26.863Z,19.83
2023-02-13T01:37:27.827Z,21.43
2023-02-13T01:41:29.030Z,19.80
2023-02-13T01:45:30.589Z,16.00
2023-02-13T01:49:31.852Z,18.87
2023-02-13T01:53:45.447Z,18.27
2023-02-13T01:57:53.197Z,18.47
2023-02-13T02:01:56.554Z,18.83
2023-02-13T02:05:59.314Z,17.27
2023-02-13T02:10:04.103Z,19.10
2023-02-13T02:14:05.307Z,18.43
2023-02-13T02:18:15.743Z,28.03
2023-02-13T02:22:47.932Z,20.33
2023-02-13T02:27:01.719Z,19.33
2023-02-13T02:31:15.771Z,20.10
2023-02-13T02:35:23.684Z,23.63
2023-02-13T02:43:58.760Z,24.00
2023-02-13T02:48:38.578Z,22.67
2023-02-13T02:52:46.485Z,25.43
2023-02-13T02:56:49.379Z,24.30
2023-02-13T03:01:10.900Z,28.47
2023-02-13T03:05:43.592Z,26.63
2023-02-13T03:10:15.768Z,26.93
2023-02-13T03:14:19.766Z,29.10
2023-02-13T03:18:39.154Z,26.27
2023-02-13T03:22:43.913Z,28.80
2023-02-13T03:26:54.822Z,28.67
2023-02-13T03:31:14.881Z,29.33
2023-02-13T03:35:43.457Z,27.93
2023-02-13T03:40:09.554Z,28.67
2023-02-13T03:44:20.209Z,28.50
2023-02-13T03:48:46.527Z,28.17
2023-02-13T03:52:57.500Z,30.10
2023-02-13T03:57:16.709Z,28.13
2023-02-13T04:01:20.901Z,28.83
2023-02-13T04:05:28.625Z,28.43
2023-02-13T04:09:31.790Z,23.60
2023-02-13T04:13:36.079Z,30.03
2023-02-13T04:17:49.315Z,30.07
2023-02-13T04:21:56.558Z,28.97
2023-02-13T04:26:01.303Z,32.63
2023-02-13T04:30:02.371Z,27.30
2023-02-13T04:34:03.375Z,29.10
2023-02-13T04:38:04.668Z,28.57
2023-02-13T04:42:05.774Z,31.73
2023-02-13T04:46:06.939Z,33.57
2023-02-13T04:50:08.622Z,34.97
2023-02-13T04:54:10.695Z,33.47
2023-02-13T04:58:11.628Z,29.23
2023-02-13T05:02:12.622Z,40.50
2023-02-13T05:06:14.175Z,35.67
2023-02-13T05:10:15.183Z,42.23
2023-02-13T05:14:16.101Z,36.37
2023-02-13T05:18:17.112Z,43.47
2023-02-13T05:22:36.320Z,38.33
2023-02-13T05:26:38.545Z,42.10
2023-02-13T05:30:39.758Z,42.97
2023-02-13T05:34:40.718Z,37.23
2023-02-13T05:38:41.808Z,41.03
2023-02-13T05:42:42.954Z,29.03
2023-02-13T05:46:44.684Z,33.03
2023-02-13T05:50:47.241Z,36.13
2023-02-13T05:54:48.420Z,30.63
2023-02-13T05:58:56.151Z,36.33
2023-02-13T06:02:57.389Z,28.07
2023-02-13T06:06:59.328Z,33.33
2023-02-13T06:11:00.661Z,36.30
2023-02-13T06:15:01.962Z,41.30
2023-02-13T06:19:02.930Z,40.37
2023-02-13T06:23:04.316Z,35.33
2023-02-13T06:27:05.308Z,45.93
2023-02-13T06:31:06.681Z,40.93
2023-02-13T06:35:08.515Z,41.43
2023-02-13T06:39:10.583Z,39.40
2023-02-13T06:43:11.820Z,46.57
2023-02-13T06:47:12.844Z,39.27
2023-02-13T06:51:14.003Z,36.70
2023-02-13T06:55:16.408Z,40.73
2023-02-13T06:59:17.435Z,44.97
2023-02-13T07:03:18.894Z,38.30
2023-02-13T07:07:20.041Z,37.63
2023-02-13T07:11:23.805Z,41.47
2023-02-13T07:15:25.137Z,50.07
2023-02-13T07:19:26.512Z,39.63
2023-02-13T07:23:27.546Z,41.73
2023-02-13T07:27:28.884Z,42.30
2023-02-13T07:31:30.187Z,33.43
2023-02-13T07:35:32.065Z,43.80
2023-02-13T07:39:33.376Z,60.00
2023-02-13T07:43:34.382Z,49.37
2023-02-13T07:47:35.570Z,43.57
2023-02-13T07:51:36.841Z,45.67
2023-02-13T07:55:39.180Z,41.27
2023-02-13T07:59:40.454Z,46.77
2023-02-13T08:03:41.800Z,48.10
2023-02-13T08:07:43.909Z,41.77
2023-02-13T08:11:54.027Z,36.93
2023-02-13T08:15:55.347Z,37.43
2023-02-13T08:19:56.830Z,36.97
2023-02-13T08:23:58.952Z,34.10
2023-02-13T08:28:01.086Z,38.87
2023-02-13T08:32:02.375Z,34.70
2023-02-13T08:36:04.557Z,29.07
2023-02-13T08:40:09.880Z,26.67
2023-02-13T08:44:11.030Z,24.93
2023-02-13T08:48:12.418Z,24.07
2023-02-13T08:52:13.794Z,25.37
2023-02-13T08:56:15.037Z,22.27
2023-02-13T09:00:16.701Z,20.33
2023-02-13T09:04:18.098Z,21.23
2023-02-13T09:08:19.566Z,20.50
2023-02-13T09:12:21.615Z,20.70
2023-02-13T09:16:23.243Z,17.60
2023-02-13T09:20:24.917Z,21.60
2023-02-13T09:24:26.300Z,14.37
2023-02-13T09:28:29.774Z,15.53
2023-02-13T09:32:31.137Z,17.60
2023-02-13T09:36:32.964Z,15.97
2023-02-13T09:40:38.148Z,14.77
2023-02-13T09:44:43.117Z,16.50
2023-02-13T09:48:48.626Z,14.93
2023-02-13T09:52:52.851Z,13.33
2023-02-13T09:57:10.045Z,17.07
2023-02-13T10:01:29.614Z,14.50
2023-02-13T10:05:49.366Z,14.00
2023-02-13T10:09:56.958Z,15.33
2023-02-13T10:14:17.297Z,15.60
2023-02-13T10:18:25.178Z,14.07
2023-02-13T10:22:32.832Z,13.47
2023-02-13T10:26:45.045Z,15.77
2023-02-13T10:30:55.607Z,13.57
2023-02-13T10:35:00.546Z,13.13
2023-02-13T10:39:08.148Z,12.00
2023-02-13T10:43:11.975Z,16.70
2023-02-13T10:47:26.028Z,13.17
2023-02-13T10:51:40.347Z,12.53
2023-02-13T10:55:51.132Z,14.30
2023-02-13T10:59:56.074Z,17.73
2023-02-13T11:04:09.980Z,12.83
2023-02-13T11:08:26.212Z,12.50
2023-02-13T11:12:33.284Z,12.47
2023-02-13T11:16:40.480Z,12.43
2023-02-13T11:20:44.957Z,14.93
2023-02-13T11:24:55.467Z,12.60
2023-02-13T11:29:00.494Z,14.13
2023-02-13T11:33:08.086Z,11.67
2023-02-13T11:37:18.540Z,11.03
2023-02-13T11:41:20.350Z,11.90
2023-02-13T11:45:23.881Z,11.57
2023-02-13T11:49:28.266Z,11.70
2023-02-13T11:53:33.065Z,11.43
2023-02-13T11:57:36.948Z,10.73
2023-02-13T12:01:38.285Z,10.33
2023-02-13T12:05:39.397Z,11.30
2023-02-13T12:09:40.981Z,10.83
2023-02-13T12:13:42.209Z,10.77
2023-02-13T12:17:45.538Z,8.47
2023-02-13T12:22:02.271Z,11.17
2023-02-13T12:26:08.234Z,8.27
2023-02-13T12:30:19.097Z,9.67
2023-02-13T12:34:39.197Z,7.70
2023-02-13T12:39:03.010Z,9.27
2023-02-13T12:43:30.731Z,7.60
2023-02-13T12:47:41.357Z,7.13
2023-02-13T12:52:08.945Z,6.97
2023-02-13T12:56:25.904Z,7.70
2023-02-13T13:00:43.064Z,8.07
2023-02-13T13:05:24.271Z,8.93
2023-02-13T13:09:41.746Z,7.63
2023-02-13T13:13:49.261Z,9.23
2023-02-13T13:18:09.375Z,10.17
2023-02-13T13:22:31.875Z,11.53
2023-02-13T13:26:39.786Z,11.23
2023-02-13T13:30:42.969Z,10.30
2023-02-13T13:34:45.137Z,12.20
2023-02-13T13:38:53.065Z,11.10
2023-02-13T13:42:58.148Z,10.07
2023-02-13T13:47:19.534Z,7.43
2023-02-13T13:51:21.459Z,7.60
2023-02-13T13:55:49.346Z,7.37
2023-02-13T14:00:03.167Z,6.77
2023-02-13T14:04:24.452Z,10.27
2023-02-13T14:08:41.424Z,8.03
2023-02-13T14:12:48.538Z,9.33
2023-02-13T14:16:50.012Z,8.23
2023-02-13T14:20:55.880Z,8.43
2023-02-13T14:25:00.593Z,8.37
2023-02-13T14:29:14.890Z,8.73
2023-02-13T14:33:28.807Z,8.20
2023-02-13T14:37:35.164Z,7.90
2023-02-13T14:41:55.655Z,10.47
2023-02-13T14:46:04.052Z,8.07
2023-02-13T14:50:07.210Z,7.73
2023-02-13T14:54:27.816Z,9.50
2023-02-13T14:58:33.148Z,7.90
2023-02-13T15:02:38.094Z,7.77
2023-02-13T15:06:42.314Z,9.07
2023-02-13T15:10:49.992Z,8.27
2023-02-13T15:14:51.136Z,6.90
2023-02-13T15:18:54.481Z,8.40
2023-02-13T15:22:57.245Z,6.67
2023-02-13T15:27:04.344Z,8.90
2023-02-13T15:31:09.886Z,8.10
2023-02-13T15:35:27.130Z,8.63
2023-02-13T15:39:30.990Z,12.70
2023-02-13T15:43:42.673Z,8.57
2023-02-13T15:47:45.897Z,8.20
2023-02-13T15:51:48.193Z,8.47
2023-02-13T15:56:00.925Z,8.57
2023-02-13T16:00:03.821Z,7.67
2023-02-13T16:04:10.298Z,9.47
2023-02-13T16:08:30.402Z,8.00
2023-02-13T16:12:31.713Z,10.10
2023-02-13T16:16:54.983Z,10.10
2023-02-13T16:20:56.762Z,12.10
2023-02-13T16:25:13.926Z,10.17
2023-02-13T16:29:21.553Z,9.00
2023-02-13T16:33:32.955Z,9.20
2023-02-13T16:37:34.291Z,12.73
2023-02-13T16:41:35.564Z,19.27
2023-02-13T16:45:37.201Z,10.33
2023-02-13T16:49:38.869Z,9.53
2023-02-13T16:53:40.443Z,11.30
2023-02-13T16:57:43.956Z,10.30
2023-02-13T17:01:45.269Z,10.93
2023-02-13T17:05:46.597Z,10.03
2023-02-13T17:10:06.549Z,10.33
2023-02-13T17:14:07.835Z,9.83
2023-02-13T17:18:09.504Z,8.70
2023-02-13T17:22:19.757Z,16.30
2023-02-13T17:26:20.820Z,18.43
2023-02-13T17:30:28.103Z,11.10
2023-02-13T17:34:29.295Z,12.77
2023-02-13T17:38:30.619Z,13.43
2023-02-13T17:42:32.164Z,14.37
2023-02-13T17:46:33.273Z,13.83
2023-02-13T17:50:35.692Z,19.33
2023-02-13T17:54:36.819Z,17.60
2023-02-13T17:58:38.084Z,16.53
2023-02-13T18:02:39.262Z,22.43
2023-02-13T18:06:40.836Z,29.00
2023-02-13T18:10:42.207Z,30.67
2023-02-13T18:14:43.577Z,34.90
2023-02-13T18:18:45.148Z,28.10
2023-02-13T18:22:47.229Z,24.50
2023-02-13T18:26:48.994Z,21.83
2023-02-13T18:30:50.690Z,24.07
2023-02-13T18:34:52.247Z,32.07
2023-02-13T18:38:53.905Z,23.13
2023-02-13T18:42:54.932Z,20.27
2023-02-13T18:46:56.160Z,14.50
2023-02-13T18:51:01.407Z,15.80
2023-02-13T18:55:05.815Z,20.00
2023-02-13T18:59:07.080Z,19.00
2023-02-13T19:03:08.132Z,20.27
2023-02-13T19:07:09.455Z,21.67
2023-02-13T19:11:13.793Z,35.13
2023-02-13T19:15:15.830Z,101.77
2023-02-13T19:19:17.129Z,71.87
2023-02-13T19:23:18.329Z,70.97
2023-02-13T19:27:19.445Z,57.77
2023-02-13T19:31:23.906Z,50.60
2023-02-13T19:35:25.392Z,34.43
2023-02-13T19:39:26.465Z,31.47
2023-02-13T19:43:27.895Z,27.47
2023-02-13T19:51:44.634Z,25.20
2023-02-13T19:55:45.833Z,21.67
2023-02-13T19:59:47.872Z,21.57
2023-02-13T20:03:49.308Z,22.30
2023-02-13T20:07:50.730Z,22.30
2023-02-13T20:11:52.363Z,23.13
2023-02-13T20:15:54.839Z,24.13
2023-02-13T20:19:57.489Z,22.90
2023-02-13T20:23:58.596Z,27.30
2023-02-13T20:28:00.066Z,31.90
2023-02-13T20:32:01.785Z,29.80
2023-02-13T20:36:14.110Z,34.17
2023-02-13T20:40:15.528Z,29.77
2023-02-13T20:44:22.151Z,24.63
2023-02-13T20:48:23.772Z,22.33
2023-02-13T20:52:25.430Z,23.57
2023-02-13T20:56:28.076Z,23.43
2023-02-13T21:00:29.298Z,28.13
2023-02-13T21:04:34.726Z,34.00
2023-02-13T21:08:36.785Z,42.23
2023-02-13T21:12:38.083Z,32.40
2023-02-13T21:16:40.572Z,34.47
2023-02-13T21:20:41.994Z,44.00
2023-02-13T21:24:43.568Z,36.70
2023-02-13T21:28:46.701Z,27.20
2023-02-13T21:32:48.109Z,34.07
2023-02-13T21:36:52.478Z,37.13
2023-02-13T21:40:53.915Z,49.03
2023-02-13T21:44:55.256Z,60.60
2023-02-13T21:48:59.948Z,60.00
2023-02-13T21:53:01.160Z,64.13
2023-02-13T21:57:03.772Z,59.57
2023-02-13T22:01:25.412Z,66.43
2023-02-13T22:05:17.873Z,54.23
2023-02-13T22:09:20.523Z,48.47
2023-02-13T22:13:22.340Z,57.60
2023-02-13T22:17:23.634Z,45.57
2023-02-13T22:21:27.200Z,49.87
2023-02-13T22:25:28.854Z,41.47
2023-02-13T22:29:30.428Z,40.23
2023-02-13T22:33:33.500Z,42.47
2023-02-13T22:37:35.899Z,48.23
2023-02-13T22:41:37.610Z,51.27
2023-02-13T22:45:39.347Z,42.30
2023-02-13T22:49:40.514Z,46.03
2023-02-13T22:53:42.156Z,45.50
2023-02-13T22:57:45.257Z,39.40
2023-02-13T23:01:46.315Z,49.77
2023-02-13T23:05:47.427Z,45.13
2023-02-13T23:09:48.524Z,48.87
2023-02-13T23:13:49.489Z,41.07
2023-02-13T23:18:09.116Z,45.10
2023-02-13T23:22:12.160Z,44.30
2023-02-13T23:26:13.541Z,46.03
2023-02-13T23:30:16.723Z,46.37
2023-02-13T23:34:18.417Z,51.90
2023-02-13T23:38:20.540Z,50.13
2023-02-13T23:42:22.211Z,49.97
2023-02-13T23:46:23.295Z,43.63
2023-02-13T23:50:24.231Z,46.67
2023-02-13T23:54:25.694Z,44.07
2023-02-13T23:58:27.307Z,50.17
